VIV4621 MMMY-MMMX
Flight info
| Callsign | VIV4621 |
|---|---|
| Flight time | 1h 9m |
| Altitude | 35000 |
| Route | KERGA1A KERGA UT132 DARAN DARAN3B |
| Aircraft | A320/M-SDE3FGHIRWY/LB1 |
Departure
| Time | 2026-04-24 20:54 |
|---|---|
| Airport | Monterrey International Airport (MMMY) |
Arrival
| Time | 2026-04-24 22:03 |
|---|---|
| Airport | Mexico City Benito Juárez International Airport (MMMX) |
| Time | Latitude | Longitude | Altitude | Speed | Heading |
|---|---|---|---|---|---|
| 2026-04-24 20:24 | 25.78038 | -100.11666 | 1331 ft | 0 kts | 121° |
| 2026-04-24 20:49 | 25.78047 | -100.11682 | 1333 ft | 3 kts | 126° |
| 2026-04-24 20:49 | 25.78061 | -100.11703 | 1335 ft | 3 kts | 120° |
| 2026-04-24 20:49 | 25.78068 | -100.11723 | 1331 ft | 3 kts | 71° |
| 2026-04-24 20:50 | 25.78066 | -100.11728 | 1337 ft | 0 kts | 61° |
| 2026-04-24 20:51 | 25.78071 | -100.11721 | 1331 ft | 3 kts | 52° |
| 2026-04-24 20:52 | 25.78110 | -100.11691 | 1331 ft | 9 kts | 32° |
| 2026-04-24 20:52 | 25.78169 | -100.11679 | 1333 ft | 10 kts | 324° |
| 2026-04-24 20:52 | 25.78208 | -100.11747 | 1331 ft | 11 kts | 301° |
| 2026-04-24 20:52 | 25.78266 | -100.11805 | 1331 ft | 12 kts | 4° |
| 2026-04-24 20:53 | 25.78344 | -100.11754 | 1331 ft | 14 kts | 31° |
| 2026-04-24 20:53 | 25.78402 | -100.11699 | 1331 ft | 6 kts | 96° |
| 2026-04-24 20:53 | 25.78382 | -100.11663 | 1332 ft | 5 kts | 119° |
| 2026-04-24 20:53 | 25.78266 | -100.11446 | 1331 ft | 67 kts | 121° |
| 2026-04-24 20:54 | 25.77917 | -100.10815 | 1331 ft | 122 kts | 121° |
| 2026-04-24 20:54 | 25.77399 | -100.09866 | 1362 ft | 162 kts | 121° |
| 2026-04-24 20:54 | 25.76826 | -100.08804 | 2054 ft | 161 kts | 124° |
| 2026-04-24 20:54 | 25.76114 | -100.07783 | 2520 ft | 177 kts | 124° |
| 2026-04-24 20:55 | 25.75411 | -100.06544 | 2920 ft | 198 kts | 120° |
| 2026-04-24 20:55 | 25.74691 | -100.05175 | 3225 ft | 219 kts | 119° |
| 2026-04-24 20:55 | 25.73884 | -100.03634 | 3559 ft | 244 kts | 119° |
| 2026-04-24 20:55 | 25.72984 | -100.01940 | 4045 ft | 264 kts | 119° |
| 2026-04-24 20:56 | 25.72021 | -100.00151 | 4707 ft | 274 kts | 120° |
| 2026-04-24 20:56 | 25.70847 | -99.98441 | 5318 ft | 288 kts | 141° |
| 2026-04-24 20:56 | 25.69018 | -99.97550 | 6063 ft | 291 kts | 173° |
| 2026-04-24 20:56 | 25.66989 | -99.97470 | 6809 ft | 293 kts | 187° |
| 2026-04-24 20:57 | 25.64965 | -99.97706 | 7663 ft | 293 kts | 190° |
| 2026-04-24 20:57 | 25.62942 | -99.97991 | 8512 ft | 294 kts | 189° |
| 2026-04-24 20:57 | 25.60909 | -99.98218 | 9409 ft | 294 kts | 187° |
| 2026-04-24 20:57 | 25.58861 | -99.98363 | 10141 ft | 297 kts | 184° |
| 2026-04-24 20:58 | 25.56721 | -99.98451 | 10423 ft | 320 kts | 183° |
| 2026-04-24 20:58 | 25.54431 | -99.98498 | 10784 ft | 335 kts | 182° |
| 2026-04-24 20:58 | 25.52076 | -99.98512 | 11402 ft | 341 kts | 182° |
| 2026-04-24 20:58 | 25.49698 | -99.98509 | 12076 ft | 344 kts | 182° |
| 2026-04-24 20:59 | 25.47298 | -99.98503 | 12754 ft | 346 kts | 183° |
| 2026-04-24 20:59 | 25.44884 | -99.98499 | 13450 ft | 347 kts | 183° |
| 2026-04-24 20:59 | 25.42462 | -99.98500 | 14058 ft | 350 kts | 184° |
| 2026-04-24 20:59 | 25.40003 | -99.98508 | 14611 ft | 354 kts | 184° |
| 2026-04-24 21:00 | 25.37525 | -99.98522 | 15129 ft | 359 kts | 184° |
| 2026-04-24 21:00 | 25.35017 | -99.98542 | 15664 ft | 363 kts | 185° |
| 2026-04-24 21:00 | 25.32480 | -99.98619 | 16180 ft | 366 kts | 187° |
| 2026-04-24 21:00 | 25.29919 | -99.98740 | 16701 ft | 370 kts | 187° |
| 2026-04-24 21:01 | 25.27330 | -99.98881 | 17206 ft | 375 kts | 188° |
| 2026-04-24 21:01 | 25.24719 | -99.99027 | 17738 ft | 378 kts | 188° |
| 2026-04-24 21:01 | 25.22110 | -99.99169 | 18228 ft | 382 kts | 188° |
| 2026-04-24 21:01 | 25.19411 | -99.99307 | 18694 ft | 385 kts | 188° |
| 2026-04-24 21:02 | 25.16760 | -99.99435 | 19175 ft | 388 kts | 188° |
| 2026-04-24 21:02 | 25.14048 | -99.99561 | 19650 ft | 391 kts | 188° |
| 2026-04-24 21:02 | 25.11324 | -99.99686 | 20096 ft | 393 kts | 188° |
| 2026-04-24 21:02 | 25.08575 | -99.99814 | 20570 ft | 397 kts | 188° |
| 2026-04-24 21:03 | 25.05811 | -99.99944 | 21023 ft | 400 kts | 188° |
| 2026-04-24 21:03 | 25.03014 | -100.00075 | 21463 ft | 402 kts | 188° |
| 2026-04-24 21:03 | 25.00221 | -100.00204 | 21756 ft | 403 kts | 188° |
| 2026-04-24 21:03 | 24.98357 | -100.00291 | 21913 ft | 406 kts | 188° |
| 2026-04-24 21:04 | 24.95494 | -100.00428 | 22427 ft | 408 kts | 188° |
| 2026-04-24 21:04 | 24.92664 | -100.00380 | 22855 ft | 415 kts | 183° |
| 2026-04-24 21:04 | 24.89775 | -100.00217 | 23303 ft | 418 kts | 183° |
| 2026-04-24 21:04 | 24.86859 | -100.00047 | 23696 ft | 421 kts | 183° |
| 2026-04-24 21:05 | 24.83933 | -99.99871 | 23939 ft | 422 kts | 183° |
| 2026-04-24 21:05 | 24.80988 | -99.99697 | 24162 ft | 426 kts | 183° |
| 2026-04-24 21:05 | 24.78016 | -99.99525 | 24651 ft | 429 kts | 183° |
| 2026-04-24 21:05 | 24.75027 | -99.99356 | 25049 ft | 431 kts | 184° |
| 2026-04-24 21:06 | 24.72022 | -99.99186 | 25391 ft | 434 kts | 184° |
| 2026-04-24 21:06 | 24.68994 | -99.99013 | 25753 ft | 436 kts | 184° |
| 2026-04-24 21:06 | 24.65953 | -99.98840 | 26094 ft | 439 kts | 183° |
| 2026-04-24 21:06 | 24.62892 | -99.98663 | 26465 ft | 442 kts | 183° |
| 2026-04-24 21:07 | 24.59820 | -99.98486 | 26807 ft | 444 kts | 183° |
| 2026-04-24 21:07 | 24.56723 | -99.98307 | 27160 ft | 447 kts | 183° |
| 2026-04-24 21:07 | 24.53608 | -99.98132 | 27490 ft | 450 kts | 183° |
| 2026-04-24 21:07 | 24.50471 | -99.97957 | 27859 ft | 453 kts | 184° |
| 2026-04-24 21:08 | 24.47320 | -99.97779 | 28192 ft | 456 kts | 184° |
| 2026-04-24 21:08 | 24.44140 | -99.97599 | 28531 ft | 458 kts | 184° |
| 2026-04-24 21:08 | 24.40943 | -99.97418 | 28914 ft | 461 kts | 184° |
| 2026-04-24 21:08 | 24.37737 | -99.97237 | 29285 ft | 463 kts | 184° |
| 2026-04-24 21:09 | 24.34508 | -99.97055 | 29638 ft | 466 kts | 184° |
| 2026-04-24 21:09 | 24.31254 | -99.96869 | 29951 ft | 469 kts | 184° |
| 2026-04-24 21:09 | 24.27982 | -99.96681 | 30283 ft | 472 kts | 184° |
| 2026-04-24 21:09 | 24.24698 | -99.96492 | 30666 ft | 473 kts | 184° |
| 2026-04-24 21:10 | 24.21415 | -99.96303 | 31060 ft | 473 kts | 184° |
| 2026-04-24 21:10 | 24.18138 | -99.96115 | 31544 ft | 471 kts | 184° |
| 2026-04-24 21:10 | 24.14872 | -99.95928 | 32084 ft | 468 kts | 184° |
| 2026-04-24 21:10 | 24.11667 | -99.95745 | 32506 ft | 466 kts | 184° |
| 2026-04-24 21:11 | 24.08434 | -99.95563 | 32919 ft | 465 kts | 184° |
| 2026-04-24 21:11 | 24.05208 | -99.95383 | 33376 ft | 463 kts | 184° |
| 2026-04-24 21:11 | 24.01997 | -99.95204 | 33868 ft | 460 kts | 184° |
| 2026-04-24 21:11 | 23.98809 | -99.95023 | 34213 ft | 460 kts | 184° |
| 2026-04-24 21:12 | 23.95614 | -99.94843 | 34542 ft | 459 kts | 184° |
| 2026-04-24 21:12 | 23.92429 | -99.94666 | 34761 ft | 458 kts | 184° |
| 2026-04-24 21:12 | 23.86104 | -99.94310 | 34809 ft | 452 kts | 184° |
| 2026-04-24 21:13 | 23.79816 | -99.93954 | 34812 ft | 452 kts | 185° |
| 2026-04-24 21:13 | 23.73534 | -99.93605 | 34803 ft | 452 kts | 184° |
| 2026-04-24 21:14 | 23.67263 | -99.93254 | 34809 ft | 451 kts | 184° |
| 2026-04-24 21:14 | 23.61005 | -99.92898 | 34811 ft | 451 kts | 184° |
| 2026-04-24 21:15 | 23.54740 | -99.92547 | 34803 ft | 451 kts | 184° |
| 2026-04-24 21:15 | 23.48473 | -99.92204 | 34805 ft | 451 kts | 184° |
| 2026-04-24 21:16 | 23.42206 | -99.91859 | 34770 ft | 451 kts | 184° |
| 2026-04-24 21:16 | 23.35987 | -99.91508 | 34783 ft | 450 kts | 184° |
| 2026-04-24 21:17 | 23.29747 | -99.91153 | 34763 ft | 449 kts | 184° |
| 2026-04-24 21:17 | 23.23492 | -99.90808 | 34767 ft | 450 kts | 184° |
| 2026-04-24 21:18 | 23.17244 | -99.90460 | 34757 ft | 450 kts | 184° |
| 2026-04-24 21:18 | 23.10984 | -99.90105 | 34747 ft | 450 kts | 184° |
| 2026-04-24 21:19 | 23.04727 | -99.89752 | 34747 ft | 450 kts | 184° |
| 2026-04-24 21:19 | 22.98488 | -99.89409 | 34746 ft | 449 kts | 184° |
| 2026-04-24 21:20 | 22.89127 | -99.88899 | 34722 ft | 449 kts | 184° |
| 2026-04-24 21:21 | 22.82882 | -99.88553 | 34718 ft | 450 kts | 184° |
| 2026-04-24 21:21 | 22.76673 | -99.88210 | 34708 ft | 450 kts | 183° |
| 2026-04-24 21:22 | 22.70420 | -99.87862 | 34714 ft | 450 kts | 183° |
| 2026-04-24 21:22 | 22.64180 | -99.87508 | 34712 ft | 450 kts | 183° |
| 2026-04-24 21:23 | 22.57928 | -99.87156 | 34714 ft | 450 kts | 183° |
| 2026-04-24 21:23 | 22.51675 | -99.86811 | 34714 ft | 450 kts | 183° |
| 2026-04-24 21:24 | 22.45429 | -99.86475 | 34703 ft | 449 kts | 183° |
| 2026-04-24 21:24 | 22.39183 | -99.86134 | 34711 ft | 449 kts | 183° |
| 2026-04-24 21:25 | 22.32943 | -99.85787 | 34708 ft | 449 kts | 183° |
| 2026-04-24 21:25 | 22.26705 | -99.85443 | 34710 ft | 449 kts | 183° |
| 2026-04-24 21:26 | 22.20473 | -99.85104 | 34712 ft | 449 kts | 183° |
| 2026-04-24 21:26 | 22.14229 | -99.84762 | 34697 ft | 449 kts | 182° |
| 2026-04-24 21:27 | 22.07997 | -99.84421 | 34706 ft | 449 kts | 182° |
| 2026-04-24 21:27 | 22.01806 | -99.84077 | 34702 ft | 448 kts | 182° |
| 2026-04-24 21:28 | 21.95575 | -99.83739 | 34700 ft | 448 kts | 183° |
| 2026-04-24 21:28 | 21.89347 | -99.83400 | 34703 ft | 448 kts | 182° |
| 2026-04-24 21:29 | 21.83108 | -99.83057 | 34686 ft | 449 kts | 182° |
| 2026-04-24 21:29 | 21.76877 | -99.82711 | 34692 ft | 449 kts | 182° |
| 2026-04-24 21:30 | 21.70643 | -99.82372 | 34694 ft | 448 kts | 182° |
| 2026-04-24 21:30 | 21.64413 | -99.82037 | 34696 ft | 448 kts | 182° |
| 2026-04-24 21:31 | 21.58181 | -99.81699 | 34709 ft | 448 kts | 182° |
| 2026-04-24 21:31 | 21.51945 | -99.81363 | 34710 ft | 449 kts | 182° |
| 2026-04-24 21:32 | 21.45719 | -99.81024 | 34718 ft | 448 kts | 182° |
| 2026-04-24 21:32 | 21.39491 | -99.80682 | 34723 ft | 448 kts | 182° |
| 2026-04-24 21:33 | 21.33261 | -99.80340 | 34724 ft | 448 kts | 182° |
| 2026-04-24 21:33 | 21.27068 | -99.80005 | 34729 ft | 448 kts | 182° |
| 2026-04-24 21:34 | 21.20837 | -99.79670 | 34749 ft | 448 kts | 182° |
| 2026-04-24 21:34 | 21.14607 | -99.79337 | 34746 ft | 448 kts | 182° |
| 2026-04-24 21:35 | 21.08381 | -99.79003 | 34778 ft | 448 kts | 182° |
| 2026-04-24 21:35 | 21.02147 | -99.78673 | 34777 ft | 448 kts | 182° |
| 2026-04-24 21:36 | 20.95930 | -99.78436 | 34804 ft | 447 kts | 183° |
| 2026-04-24 21:36 | 20.89711 | -99.78258 | 34803 ft | 447 kts | 183° |
| 2026-04-24 21:37 | 20.83495 | -99.78071 | 34806 ft | 447 kts | 183° |
| 2026-04-24 21:37 | 20.77281 | -99.77866 | 34809 ft | 447 kts | 183° |
| 2026-04-24 21:38 | 20.71070 | -99.77648 | 34827 ft | 447 kts | 182° |
| 2026-04-24 21:38 | 20.64844 | -99.77430 | 34509 ft | 447 kts | 183° |
| 2026-04-24 21:38 | 20.61750 | -99.77320 | 34279 ft | 445 kts | 183° |
| 2026-04-24 21:39 | 20.58661 | -99.77208 | 33972 ft | 441 kts | 183° |
| 2026-04-24 21:39 | 20.55598 | -99.77098 | 33421 ft | 440 kts | 183° |
| 2026-04-24 21:39 | 20.52541 | -99.76991 | 32912 ft | 437 kts | 182° |
| 2026-04-24 21:39 | 20.49513 | -99.76887 | 32413 ft | 435 kts | 182° |
| 2026-04-24 21:40 | 20.46498 | -99.76786 | 31906 ft | 433 kts | 182° |
| 2026-04-24 21:40 | 20.43533 | -99.76686 | 31417 ft | 431 kts | 182° |
| 2026-04-24 21:40 | 20.40501 | -99.76582 | 30910 ft | 429 kts | 182° |
| 2026-04-24 21:40 | 20.37557 | -99.76481 | 30415 ft | 428 kts | 182° |
| 2026-04-24 21:41 | 20.34587 | -99.76381 | 29913 ft | 427 kts | 182° |
| 2026-04-24 21:41 | 20.31628 | -99.76283 | 29401 ft | 425 kts | 182° |
| 2026-04-24 21:41 | 20.28682 | -99.76181 | 28926 ft | 422 kts | 181° |
| 2026-04-24 21:41 | 20.25778 | -99.75710 | 28454 ft | 425 kts | 166° |
| 2026-04-24 21:42 | 20.23085 | -99.74420 | 27986 ft | 428 kts | 149° |
| 2026-04-24 21:42 | 20.20825 | -99.72366 | 27623 ft | 427 kts | 131° |
| 2026-04-24 21:42 | 20.19196 | -99.69742 | 27401 ft | 427 kts | 115° |
| 2026-04-24 21:42 | 20.18169 | -99.66785 | 27108 ft | 425 kts | 108° |
| 2026-04-24 21:43 | 20.17239 | -99.63796 | 26832 ft | 423 kts | 108° |
| 2026-04-24 21:43 | 20.16322 | -99.60837 | 26559 ft | 421 kts | 108° |
| 2026-04-24 21:43 | 20.15399 | -99.57888 | 26230 ft | 420 kts | 110° |
| 2026-04-24 21:43 | 20.14040 | -99.55117 | 25391 ft | 428 kts | 128° |
| 2026-04-24 21:44 | 20.12085 | -99.52737 | 24923 ft | 425 kts | 132° |
| 2026-04-24 21:44 | 20.10119 | -99.50402 | 24450 ft | 424 kts | 132° |
| 2026-04-24 21:44 | 20.08165 | -99.48060 | 23977 ft | 423 kts | 131° |
| 2026-04-24 21:44 | 20.06213 | -99.45712 | 23486 ft | 423 kts | 131° |
| 2026-04-24 21:45 | 20.04270 | -99.43374 | 23054 ft | 419 kts | 131° |
| 2026-04-24 21:45 | 20.02352 | -99.41069 | 22424 ft | 412 kts | 131° |
| 2026-04-24 21:45 | 20.00481 | -99.38827 | 21916 ft | 397 kts | 131° |
| 2026-04-24 21:45 | 19.98681 | -99.36676 | 21423 ft | 383 kts | 131° |
| 2026-04-24 21:46 | 19.96935 | -99.34594 | 20964 ft | 371 kts | 132° |
| 2026-04-24 21:46 | 19.95240 | -99.32573 | 20509 ft | 360 kts | 131° |
| 2026-04-24 21:46 | 19.93600 | -99.30616 | 20103 ft | 351 kts | 131° |
| 2026-04-24 21:46 | 19.91970 | -99.28672 | 19705 ft | 353 kts | 132° |
| 2026-04-24 21:47 | 19.90334 | -99.26723 | 19282 ft | 355 kts | 132° |
| 2026-04-24 21:47 | 19.89245 | -99.25428 | 19005 ft | 356 kts | 132° |
| 2026-04-24 21:47 | 19.87054 | -99.22821 | 18532 ft | 355 kts | 132° |
| 2026-04-24 21:47 | 19.85404 | -99.20857 | 17851 ft | 362 kts | 132° |
| 2026-04-24 21:48 | 19.83726 | -99.18859 | 17374 ft | 362 kts | 132° |
| 2026-04-24 21:48 | 19.82051 | -99.16868 | 16950 ft | 360 kts | 132° |
| 2026-04-24 21:48 | 19.80388 | -99.14890 | 16529 ft | 359 kts | 132° |
| 2026-04-24 21:48 | 19.78730 | -99.12917 | 16109 ft | 357 kts | 133° |
| 2026-04-24 21:49 | 19.77078 | -99.10948 | 15687 ft | 356 kts | 133° |
| 2026-04-24 21:49 | 19.75433 | -99.08987 | 15246 ft | 356 kts | 133° |
| 2026-04-24 21:49 | 19.73787 | -99.07026 | 14789 ft | 355 kts | 132° |
| 2026-04-24 21:49 | 19.72147 | -99.05074 | 14340 ft | 354 kts | 132° |
| 2026-04-24 21:50 | 19.70509 | -99.03126 | 13871 ft | 354 kts | 132° |
| 2026-04-24 21:50 | 19.68869 | -99.01180 | 13410 ft | 352 kts | 133° |
| 2026-04-24 21:50 | 19.67166 | -98.99322 | 12729 ft | 350 kts | 143° |
| 2026-04-24 21:50 | 19.65042 | -98.98113 | 12281 ft | 346 kts | 161° |
| 2026-04-24 21:51 | 19.62769 | -98.97296 | 11856 ft | 344 kts | 163° |
| 2026-04-24 21:51 | 19.60476 | -98.96588 | 11419 ft | 341 kts | 171° |
| 2026-04-24 21:51 | 19.58124 | -98.96425 | 11012 ft | 338 kts | 181° |
| 2026-04-24 21:51 | 19.55773 | -98.96455 | 10606 ft | 337 kts | 182° |
| 2026-04-24 21:52 | 19.53492 | -98.96786 | 10189 ft | 333 kts | 202° |
| 2026-04-24 21:52 | 19.51600 | -98.98162 | 9779 ft | 330 kts | 229° |
| 2026-04-24 21:52 | 19.50353 | -99.00180 | 9595 ft | 324 kts | 233° |
| 2026-04-24 21:52 | 19.48775 | -99.01851 | 9364 ft | 321 kts | 217° |
| 2026-04-24 21:53 | 19.46908 | -99.03197 | 8593 ft | 327 kts | 218° |
| 2026-04-24 21:53 | 19.45242 | -99.04843 | 7830 ft | 327 kts | 231° |
| 2026-04-24 21:53 | 19.44015 | -99.06772 | 8184 ft | 300 kts | 237° |
| 2026-04-24 21:53 | 19.43009 | -99.08599 | 9150 ft | 279 kts | 243° |
| 2026-04-24 21:54 | 19.42166 | -99.10456 | 9522 ft | 279 kts | 245° |
| 2026-04-24 21:54 | 19.41356 | -99.12284 | 10368 ft | 271 kts | 245° |
| 2026-04-24 21:54 | 19.40824 | -99.13499 | 10694 ft | 276 kts | 245° |
| 2026-04-24 21:54 | 19.39854 | -99.16008 | 11224 ft | 282 kts | 259° |
| 2026-04-24 21:55 | 19.40097 | -99.18054 | 11436 ft | 291 kts | 298° |
| 2026-04-24 21:55 | 19.41553 | -99.19563 | 11607 ft | 307 kts | 335° |
| 2026-04-24 21:55 | 19.43696 | -99.19888 | 11722 ft | 327 kts | 11° |
| 2026-04-24 21:55 | 19.45675 | -99.18659 | 11886 ft | 344 kts | 44° |
| 2026-04-24 21:56 | 19.46776 | -99.17392 | 12126 ft | 350 kts | 49° |
| 2026-04-24 21:56 | 19.48086 | -99.15209 | 12554 ft | 357 kts | 69° |
| 2026-04-24 21:56 | 19.48393 | -99.12589 | 12532 ft | 377 kts | 97° |
| 2026-04-24 21:56 | 19.47487 | -99.09928 | 12465 ft | 392 kts | 122° |
| 2026-04-24 21:57 | 19.45846 | -99.07805 | 12358 ft | 353 kts | 133° |
| 2026-04-24 21:57 | 19.44254 | -99.06014 | 12249 ft | 314 kts | 133° |
| 2026-04-24 21:57 | 19.42928 | -99.04292 | 11935 ft | 292 kts | 124° |
| 2026-04-24 21:57 | 19.41997 | -99.02466 | 11594 ft | 273 kts | 112° |
| 2026-04-24 21:58 | 19.41417 | -99.00606 | 11223 ft | 262 kts | 106° |
| 2026-04-24 21:58 | 19.40968 | -98.98741 | 11012 ft | 259 kts | 103° |
| 2026-04-24 21:58 | 19.40694 | -98.96883 | 10766 ft | 257 kts | 88° |
| 2026-04-24 21:58 | 19.41163 | -98.95059 | 10339 ft | 262 kts | 59° |
| 2026-04-24 21:59 | 19.42229 | -98.93543 | 10298 ft | 248 kts | 46° |
| 2026-04-24 21:59 | 19.43499 | -98.92447 | 10358 ft | 231 kts | 31° |
| 2026-04-24 21:59 | 19.44931 | -98.91786 | 10273 ft | 217 kts | 14° |
| 2026-04-24 21:59 | 19.46355 | -98.91587 | 10225 ft | 200 kts | 354° |
| 2026-04-24 22:00 | 19.47686 | -98.91930 | 10018 ft | 204 kts | 332° |
| 2026-04-24 22:00 | 19.48872 | -98.92753 | 9872 ft | 201 kts | 317° |
| 2026-04-24 22:00 | 19.49715 | -98.93869 | 9759 ft | 190 kts | 291° |
| 2026-04-24 22:00 | 19.50027 | -98.95180 | 9667 ft | 181 kts | 268° |
| 2026-04-24 22:01 | 19.49774 | -98.96455 | 9589 ft | 176 kts | 244° |
| 2026-04-24 22:01 | 19.49215 | -98.97597 | 9492 ft | 174 kts | 240° |
| 2026-04-24 22:01 | 19.48582 | -98.98689 | 9364 ft | 169 kts | 239° |
| 2026-04-24 22:01 | 19.47967 | -98.99696 | 9200 ft | 158 kts | 238° |
| 2026-04-24 22:02 | 19.47401 | -99.00683 | 8979 ft | 156 kts | 242° |
| 2026-04-24 22:02 | 19.46876 | -99.01667 | 8673 ft | 158 kts | 241° |
| 2026-04-24 22:02 | 19.46336 | -99.02710 | 8271 ft | 165 kts | 241° |
| 2026-04-24 22:02 | 19.45754 | -99.03752 | 7929 ft | 163 kts | 239° |
| 2026-04-24 22:03 | 19.45158 | -99.04776 | 7664 ft | 162 kts | 238° |
| 2026-04-24 22:03 | 19.44594 | -99.05784 | 7433 ft | 158 kts | 236° |
| 2026-04-24 22:03 | 19.44054 | -99.06752 | 7317 ft | 142 kts | 235° |
| 2026-04-24 22:03 | 19.43997 | -99.06853 | 7305 ft | 1 kts | 235° |